createdAt,value
2019-01-26T00:00:45.666Z,100220.43
2019-01-26T00:03:16.621Z,100211.73
2019-01-26T00:05:47.559Z,100207.00
2019-01-26T00:08:18.347Z,100202.23
2019-01-26T00:10:49.113Z,100194.03
2019-01-26T00:13:19.920Z,100184.56
2019-01-26T00:15:52.171Z,100173.62
2019-01-26T00:18:22.962Z,100165.91
2019-01-26T00:20:53.806Z,100159.35
2019-01-26T00:23:24.636Z,100159.16
2019-01-26T00:25:55.467Z,100163.66
2019-01-26T00:28:26.322Z,100166.98
2019-01-26T00:30:57.290Z,100162.33
2019-01-26T00:33:28.083Z,100158.13
2019-01-26T00:35:58.983Z,100145.16
2019-01-26T00:38:29.818Z,100135.96
2019-01-26T00:41:00.623Z,100139.90
2019-01-26T00:43:31.491Z,100135.63
2019-01-26T00:46:02.284Z,100129.67
2019-01-26T00:48:33.126Z,100123.61
2019-01-26T00:51:03.944Z,100114.80
2019-01-26T00:53:34.733Z,100113.12
2019-01-26T00:56:05.591Z,100099.91
2019-01-26T00:58:36.438Z,100091.67
2019-01-26T01:01:07.300Z,100092.13
2019-01-26T01:03:38.134Z,100094.50
2019-01-26T01:06:08.990Z,100084.58
2019-01-26T01:08:40.156Z,100073.41
2019-01-26T01:11:10.941Z,100068.84
2019-01-26T01:13:41.816Z,100058.05
2019-01-26T01:16:12.713Z,100048.23
2019-01-26T01:18:43.500Z,100036.87
2019-01-26T01:21:14.276Z,100034.45
2019-01-26T01:23:45.089Z,100020.14
2019-01-26T01:26:15.946Z,100024.03
2019-01-26T01:28:46.779Z,100014.78
2019-01-26T01:31:17.641Z,100004.86
2019-01-26T01:33:48.534Z,99992.17
2019-01-26T01:36:22.720Z,99978.92
2019-01-26T01:38:53.557Z,99990.23
2019-01-26T01:41:31.823Z,99989.84
2019-01-26T01:44:11.386Z,99978.84
2019-01-26T01:46:48.900Z,99977.87
2019-01-26T01:49:19.958Z,99977.45
2019-01-26T01:51:58.769Z,99970.12
2019-01-26T01:54:31.219Z,99967.10
2019-01-26T01:57:05.547Z,99967.01
2019-01-26T01:59:38.457Z,99957.30
2019-01-26T02:02:14.377Z,99949.45
2019-01-26T02:04:48.712Z,99944.73
2019-01-26T02:07:22.763Z,99936.22
2019-01-26T02:09:58.206Z,99939.63
2019-01-26T02:12:29.437Z,99927.89
2019-01-26T02:15:07.557Z,99919.30
2019-01-26T02:17:39.108Z,99912.09
2019-01-26T02:20:13.974Z,99900.99
2019-01-26T02:22:53.710Z,99881.58
2019-01-26T02:25:24.834Z,99881.60
2019-01-26T02:27:57.777Z,99877.35
2019-01-26T02:30:30.143Z,99874.30
2019-01-26T02:33:00.963Z,99868.88
2019-01-26T02:35:31.895Z,99857.20
2019-01-26T02:38:02.692Z,99854.48
2019-01-26T02:40:33.664Z,99856.63
2019-01-26T02:43:04.771Z,99840.57
2019-01-26T02:45:35.548Z,99832.64
2019-01-26T02:48:06.338Z,99827.45
2019-01-26T02:50:37.149Z,99821.38
2019-01-26T02:53:07.965Z,99817.11
2019-01-26T02:55:38.741Z,99804.97
2019-01-26T02:58:09.563Z,99801.55
2019-01-26T03:00:40.297Z,99808.08
2019-01-26T03:03:11.094Z,99795.50
2019-01-26T03:05:41.864Z,99789.05
2019-01-26T03:08:12.664Z,99791.27
2019-01-26T03:10:43.429Z,99787.89
2019-01-26T03:13:14.232Z,99782.20
2019-01-26T03:15:45.166Z,99782.22
2019-01-26T03:18:15.999Z,99781.84
2019-01-26T03:20:46.917Z,99785.38
2019-01-26T03:23:17.715Z,99773.17
2019-01-26T03:25:48.621Z,99762.39
2019-01-26T03:28:20.081Z,99753.47
2019-01-26T03:30:50.983Z,99754.74
2019-01-26T03:33:21.761Z,99753.52
2019-01-26T03:35:52.548Z,99758.29
2019-01-26T03:38:23.378Z,99745.70
2019-01-26T03:40:54.161Z,99737.45
2019-01-26T03:43:24.993Z,99728.74
2019-01-26T03:45:58.590Z,99727.89
2019-01-26T03:48:29.403Z,99729.75
2019-01-26T03:51:00.217Z,99732.70
2019-01-26T03:53:31.053Z,99726.16
2019-01-26T03:56:01.948Z,99713.17
2019-01-26T03:58:33.415Z,99707.36
2019-01-26T04:01:04.295Z,99716.05
2019-01-26T04:03:35.067Z,99711.58
2019-01-26T04:06:05.978Z,99705.91
2019-01-26T04:08:36.753Z,99696.84
2019-01-26T04:11:07.619Z,99688.73
2019-01-26T04:13:38.384Z,99697.31
2019-01-26T04:16:09.204Z,99691.13
2019-01-26T04:18:39.957Z,99676.31
2019-01-26T04:21:10.906Z,99684.19
2019-01-26T04:23:41.666Z,99676.39
2019-01-26T04:26:12.471Z,99680.25
2019-01-26T04:28:43.323Z,99672.91
2019-01-26T04:31:14.197Z,99662.98
2019-01-26T04:33:44.941Z,99658.20
2019-01-26T04:36:15.757Z,99651.23
2019-01-26T04:38:46.583Z,99654.70
2019-01-26T04:41:17.323Z,99645.98
2019-01-26T04:43:48.160Z,99649.03
2019-01-26T04:46:18.965Z,99643.25
2019-01-26T04:48:49.816Z,99638.92
2019-01-26T04:51:20.621Z,99644.14
2019-01-26T04:53:51.458Z,99639.49
2019-01-26T04:56:22.302Z,99643.06
2019-01-26T04:58:53.086Z,99645.12
2019-01-26T05:01:23.961Z,99643.80
2019-01-26T05:03:54.930Z,99639.96
2019-01-26T05:06:25.925Z,99629.18
2019-01-26T05:08:56.708Z,99618.02
2019-01-26T05:11:27.488Z,99618.88
2019-01-26T05:13:58.336Z,99623.20
2019-01-26T05:16:29.201Z,99623.63
2019-01-26T05:19:00.107Z,99616.70
2019-01-26T05:21:30.872Z,99611.06
2019-01-26T05:24:01.724Z,99609.32
2019-01-26T05:26:32.457Z,99603.27
2019-01-26T05:29:03.264Z,99605.95
2019-01-26T05:31:34.125Z,99604.16
2019-01-26T05:34:05.069Z,99603.27
2019-01-26T05:36:35.914Z,99599.39
2019-01-26T05:39:09.108Z,99600.27
2019-01-26T05:41:39.969Z,99599.39
2019-01-26T05:44:10.805Z,99594.62
2019-01-26T05:46:41.651Z,99596.41
2019-01-26T05:49:12.545Z,99595.56
2019-01-26T05:51:43.441Z,99590.81
2019-01-26T05:54:14.233Z,99589.06
2019-01-26T05:56:45.081Z,99576.16
2019-01-26T05:59:15.933Z,99574.87
2019-01-26T06:01:46.830Z,99579.19
2019-01-26T06:04:17.630Z,99571.81
2019-01-26T06:06:48.481Z,99565.34
2019-01-26T06:09:19.267Z,99577.47
2019-01-26T06:11:50.176Z,99571.88
2019-01-26T06:14:21.050Z,99570.58
2019-01-26T06:16:51.834Z,99571.02
2019-01-26T06:19:22.589Z,99569.31
2019-01-26T06:21:53.375Z,99567.16
2019-01-26T06:24:24.189Z,99566.73
2019-01-26T06:26:55.070Z,99562.41
2019-01-26T06:29:25.981Z,99554.63
2019-01-26T06:31:56.835Z,99557.67
2019-01-26T06:34:27.834Z,99545.14
2019-01-26T06:36:58.713Z,99552.52
2019-01-26T06:39:29.556Z,99551.68
2019-01-26T06:42:00.310Z,99552.12
2019-01-26T06:44:31.144Z,99552.14
2019-01-26T06:47:01.884Z,99541.31
2019-01-26T06:49:32.702Z,99552.62
2019-01-26T06:52:03.491Z,99554.35
2019-01-26T06:54:34.323Z,99551.78
2019-01-26T06:57:05.308Z,99551.34
2019-01-26T06:59:36.063Z,99543.10
2019-01-26T07:02:06.930Z,99556.13
2019-01-26T07:04:46.839Z,99550.48
2019-01-26T07:07:19.493Z,99552.22
2019-01-26T07:09:50.242Z,99551.37
2019-01-26T07:12:21.136Z,99541.38
2019-01-26T07:14:52.021Z,99551.38
2019-01-26T07:17:23.908Z,99546.63
2019-01-26T07:19:54.696Z,99545.30
2019-01-26T07:22:25.546Z,99546.16
2019-01-26T07:24:56.321Z,99543.13
2019-01-26T07:27:27.188Z,99550.53
2019-01-26T07:29:57.984Z,99547.92
2019-01-26T07:32:28.934Z,99547.51
2019-01-26T07:34:59.724Z,99544.91
2019-01-26T07:37:30.543Z,99547.48
2019-01-26T07:40:01.577Z,99547.06
2019-01-26T07:42:32.356Z,99550.97
2019-01-26T07:45:03.177Z,99551.41
2019-01-26T07:47:34.147Z,99543.16
2019-01-26T07:50:06.163Z,99544.45
2019-01-26T07:52:36.962Z,99535.34
2019-01-26T07:55:09.196Z,99543.14
2019-01-26T07:57:40.181Z,99549.22
2019-01-26T08:00:16.651Z,99536.19
2019-01-26T08:02:47.493Z,99540.50
2019-01-26T08:05:18.350Z,99535.73
2019-01-26T08:07:49.281Z,99535.31
2019-01-26T08:10:22.932Z,99537.07
2019-01-26T08:12:54.463Z,99527.08
2019-01-26T08:15:30.626Z,99527.48
2019-01-26T08:18:01.486Z,99534.42
2019-01-26T08:20:32.425Z,99531.37
2019-01-26T08:23:03.356Z,99537.91
2019-01-26T08:25:34.299Z,99536.99
2019-01-26T08:28:11.839Z,99539.60
2019-01-26T08:30:38.252Z,99537.89
2019-01-26T08:33:09.207Z,99536.56
2019-01-26T08:35:40.089Z,99533.09
2019-01-26T08:38:12.191Z,99543.49
2019-01-26T08:40:43.009Z,99534.77
2019-01-26T08:43:16.983Z,99532.62
2019-01-26T08:45:47.859Z,99533.91
2019-01-26T08:48:19.872Z,99536.48
2019-01-26T08:50:50.888Z,99540.37
2019-01-26T08:53:21.763Z,99536.05
2019-01-26T08:55:52.595Z,99530.36
2019-01-26T08:58:23.383Z,99532.03
2019-01-26T09:00:54.232Z,99530.73
2019-01-26T09:03:36.870Z,99536.34
2019-01-26T09:06:11.213Z,99536.73
2019-01-26T09:08:42.241Z,99533.34
2019-01-26T09:11:13.222Z,99525.86
2019-01-26T09:13:43.995Z,99531.50
2019-01-26T09:16:16.175Z,99531.84
2019-01-26T09:18:47.084Z,99533.20
2019-01-26T09:21:20.588Z,99529.18
2019-01-26T09:23:51.375Z,99530.59
2019-01-26T09:26:22.432Z,99527.55
2019-01-26T09:28:53.247Z,99527.10
2019-01-26T09:31:26.164Z,99534.45
2019-01-26T09:33:56.956Z,99535.33
2019-01-26T09:36:27.884Z,99528.80
2019-01-26T09:38:58.639Z,99540.11
2019-01-26T09:41:29.507Z,99528.42
2019-01-26T09:44:00.372Z,99520.63
2019-01-26T09:46:31.231Z,99522.77
2019-01-26T09:49:02.193Z,99523.63
2019-01-26T09:51:33.209Z,99527.94
2019-01-26T09:54:04.435Z,99533.20
2019-01-26T09:56:35.345Z,99533.59
2019-01-26T09:59:06.520Z,99539.23
2019-01-26T10:01:37.431Z,99537.50
2019-01-26T10:04:08.504Z,99537.51
2019-01-26T10:06:39.355Z,99538.42
2019-01-26T10:09:13.198Z,99535.72
2019-01-26T10:11:44.159Z,99537.50
2019-01-26T10:14:15.071Z,99534.08
2019-01-26T10:16:46.044Z,99539.29
2019-01-26T10:19:16.905Z,99537.98
2019-01-26T10:21:47.699Z,99539.62
2019-01-26T10:24:18.746Z,99537.08
2019-01-26T10:26:51.875Z,99535.76
2019-01-26T10:29:24.971Z,99538.37
2019-01-26T10:31:55.965Z,99533.97
2019-01-26T10:34:26.957Z,99529.61
2019-01-26T10:37:02.066Z,99532.22
2019-01-26T10:39:33.095Z,99529.95
2019-01-26T10:42:26.835Z,99529.00
2019-01-26T10:44:58.008Z,99522.41
2019-01-26T10:47:29.022Z,99523.20
2019-01-26T10:49:59.906Z,99517.09
2019-01-26T10:52:30.846Z,99520.09
2019-01-26T10:55:01.767Z,99516.58
2019-01-26T10:57:32.682Z,99517.38
2019-01-26T11:00:03.796Z,99516.74
2019-01-26T11:02:34.606Z,99511.49
2019-01-26T11:05:06.401Z,99511.59
2019-01-26T11:07:37.214Z,99514.31
2019-01-26T11:10:09.266Z,99513.37
2019-01-26T11:12:40.326Z,99512.14
2019-01-26T11:15:11.924Z,99510.26
2019-01-26T11:17:43.155Z,99509.96
2019-01-26T11:20:14.425Z,99508.11
2019-01-26T11:22:45.240Z,99502.37
2019-01-26T11:25:16.458Z,99496.83
2019-01-26T11:28:19.755Z,99495.91
2019-01-26T11:30:46.382Z,99495.47
2019-01-26T11:33:17.311Z,99497.64
2019-01-26T11:35:48.275Z,99491.19
2019-01-26T11:38:19.163Z,99490.63
2019-01-26T11:40:50.122Z,99493.66
2019-01-26T11:43:22.850Z,99489.45
2019-01-26T11:46:18.389Z,99486.52
2019-01-26T11:48:51.697Z,99495.66
2019-01-26T11:51:43.896Z,99494.89
2019-01-26T11:54:14.768Z,99488.20
2019-01-26T11:56:48.452Z,99490.38
2019-01-26T11:59:19.385Z,99487.33
2019-01-26T12:02:04.395Z,99484.27
2019-01-26T12:05:05.959Z,99478.17
2019-01-26T12:07:37.815Z,99482.11
2019-01-26T12:10:12.114Z,99488.80
2019-01-26T12:12:43.007Z,99488.05
2019-01-26T12:15:16.069Z,99491.96
2019-01-26T12:17:46.890Z,99494.14
2019-01-26T12:20:18.405Z,99487.13
2019-01-26T12:22:49.236Z,99480.22
2019-01-26T12:25:20.133Z,99482.87
2019-01-26T12:27:50.962Z,99479.83
2019-01-26T12:30:21.790Z,99474.61
2019-01-26T12:32:52.643Z,99474.98
2019-01-26T12:35:23.412Z,99469.72
2019-01-26T12:37:57.319Z,99471.08
2019-01-26T12:40:34.808Z,99474.95
2019-01-26T12:43:05.717Z,99479.30
2019-01-26T12:45:36.662Z,99461.88
2019-01-26T12:48:08.053Z,99463.62
2019-01-26T12:50:38.923Z,99463.07
2019-01-26T12:53:09.733Z,99458.79
2019-01-26T12:55:43.978Z,99459.16
2019-01-26T12:58:15.111Z,99462.58
2019-01-26T13:00:46.021Z,99459.45
2019-01-26T13:03:17.045Z,99457.36
2019-01-26T13:05:48.176Z,99455.98
2019-01-26T13:08:19.073Z,99463.00
2019-01-26T13:10:54.829Z,99463.45
2019-01-26T13:13:25.842Z,99456.91
2019-01-26T13:15:56.669Z,99453.58
2019-01-26T13:22:44.043Z,99463.12
2019-01-26T13:25:17.281Z,99459.10
2019-01-26T13:27:48.165Z,99458.58
2019-01-26T13:30:20.810Z,99460.64
2019-01-26T13:32:53.692Z,99466.05
2019-01-26T13:35:32.467Z,99463.31
2019-01-26T13:38:09.067Z,99463.30
2019-01-26T13:41:30.447Z,99459.47
2019-01-26T13:44:02.768Z,99459.95
2019-01-26T13:46:33.712Z,99459.55
2019-01-26T13:49:04.647Z,99464.38
2019-01-26T13:51:36.933Z,99468.73
2019-01-26T13:54:10.645Z,99458.10
2019-01-26T13:56:44.117Z,99457.79
2019-01-26T13:59:15.060Z,99459.91
2019-01-26T14:01:45.821Z,99456.00
2019-01-26T14:04:16.671Z,99456.93
2019-01-26T14:06:47.473Z,99452.55
2019-01-26T14:09:18.333Z,99453.42
2019-01-26T14:11:49.321Z,99453.74
2019-01-26T14:14:30.018Z,99450.69
2019-01-26T14:17:01.226Z,99454.23
2019-01-26T14:19:32.191Z,99454.23
2019-01-26T14:22:05.713Z,99460.02
2019-01-26T14:24:36.862Z,99458.59
2019-01-26T14:27:07.873Z,99456.54
2019-01-26T14:29:39.381Z,99452.24
2019-01-26T14:32:10.740Z,99452.63
2019-01-26T14:34:41.706Z,99454.69
2019-01-26T14:37:13.767Z,99451.20
2019-01-26T14:39:45.225Z,99447.34
2019-01-26T14:42:17.770Z,99447.70
2019-01-26T14:44:48.605Z,99448.64
2019-01-26T14:47:20.094Z,99445.45
2019-01-26T14:49:58.438Z,99444.86
2019-01-26T14:52:26.529Z,99441.72
2019-01-26T14:54:57.644Z,99442.67
2019-01-26T14:57:31.263Z,99440.88
2019-01-26T15:00:02.107Z,99438.75
2019-01-26T15:02:32.917Z,99438.78
2019-01-26T15:05:03.985Z,99434.05
2019-01-26T15:07:38.882Z,99442.36
2019-01-26T15:10:10.946Z,99432.41
2019-01-26T15:12:41.842Z,99435.95
2019-01-26T15:15:13.788Z,99438.63
2019-01-26T15:21:44.428Z,99433.42
2019-01-26T15:24:15.387Z,99434.78
2019-01-26T15:26:48.060Z,99432.19
2019-01-26T15:29:18.895Z,99430.88
2019-01-26T15:31:49.706Z,99428.69
2019-01-26T15:34:20.504Z,99428.70
2019-01-26T15:36:51.436Z,99424.83
2019-01-26T15:39:22.434Z,99425.70
2019-01-26T15:41:55.052Z,99431.42
2019-01-26T15:44:26.113Z,99434.47
2019-01-26T15:46:57.160Z,99427.50
2019-01-26T15:49:28.028Z,99434.03
2019-01-26T15:51:58.896Z,99430.98
2019-01-26T15:54:32.406Z,99420.98
2019-01-26T15:57:03.720Z,99423.16
2019-01-26T15:59:37.068Z,99418.36
2019-01-26T16:02:08.186Z,99422.72
2019-01-26T16:04:39.228Z,99420.55
2019-01-26T16:07:10.001Z,99423.58
2019-01-26T16:09:45.043Z,99429.25
2019-01-26T16:12:16.354Z,99422.72
2019-01-26T16:14:47.258Z,99425.76
2019-01-26T16:17:18.156Z,99414.87
2019-01-26T16:19:49.138Z,99418.87
2019-01-26T16:22:20.067Z,99424.03
2019-01-26T16:24:53.837Z,99417.02
2019-01-26T16:27:24.705Z,99423.09
2019-01-26T16:29:55.735Z,99422.66
2019-01-26T16:32:29.052Z,99412.59
2019-01-26T16:35:00.036Z,99414.76
2019-01-26T16:37:30.854Z,99415.20
2019-01-26T16:40:04.569Z,99410.84
2019-01-26T16:42:37.134Z,99403.00
2019-01-26T16:45:14.096Z,99404.67
2019-01-26T16:47:47.912Z,99408.16
2019-01-26T16:50:27.586Z,99405.11
2019-01-26T16:52:55.568Z,99399.00
2019-01-26T16:55:26.629Z,99404.19
2019-01-26T16:57:57.459Z,99403.31
2019-01-26T17:00:39.212Z,99408.52
2019-01-26T17:03:10.515Z,99397.65
2019-01-26T17:05:41.579Z,99403.80
2019-01-26T17:08:12.663Z,99402.52
2019-01-26T17:10:43.481Z,99398.16
2019-01-26T17:13:14.353Z,99403.37
2019-01-26T17:15:45.297Z,99402.00
2019-01-26T17:18:16.219Z,99397.63
2019-01-26T17:20:47.663Z,99392.35
2019-01-26T17:23:19.042Z,99395.80
2019-01-26T17:25:49.940Z,99395.80
2019-01-26T17:28:21.027Z,99389.70
2019-01-26T17:30:51.954Z,99392.27
2019-01-26T17:33:22.689Z,99394.09
2019-01-26T17:35:53.540Z,99384.08
2019-01-26T17:38:24.493Z,99386.25
2019-01-26T17:40:55.315Z,99384.92
2019-01-26T17:43:26.314Z,99389.22
2019-01-26T17:45:57.169Z,99384.86
2019-01-26T17:48:28.119Z,99392.75
2019-01-26T17:51:02.024Z,99387.98
2019-01-26T17:53:32.835Z,99385.44
2019-01-26T17:56:06.233Z,99380.15
2019-01-26T17:58:37.485Z,99382.23
2019-01-26T18:01:12.115Z,99385.73
2019-01-26T18:03:42.920Z,99375.73
2019-01-26T18:06:13.800Z,99379.72
2019-01-26T18:08:45.481Z,99374.94
2019-01-26T18:11:16.301Z,99377.99
2019-01-26T18:13:47.137Z,99379.65
2019-01-26T18:16:19.438Z,99375.34
2019-01-26T18:18:50.442Z,99371.78
2019-01-26T18:21:21.322Z,99376.56
2019-01-26T18:23:52.490Z,99367.95
2019-01-26T18:26:24.831Z,99369.18
2019-01-26T18:28:55.982Z,99369.98
2019-01-26T18:31:28.076Z,99367.42
2019-01-26T18:33:59.103Z,99363.09
2019-01-26T18:36:29.911Z,99360.38
2019-01-26T18:39:00.670Z,99359.91
2019-01-26T18:41:31.495Z,99359.06
2019-01-26T18:44:02.447Z,99361.67
2019-01-26T18:46:33.217Z,99350.77
2019-01-26T18:49:04.083Z,99353.86
2019-01-26T18:51:34.911Z,99352.11
2019-01-26T18:54:06.276Z,99344.71
2019-01-26T18:56:37.113Z,99339.03
2019-01-26T18:59:07.874Z,99343.76
2019-01-26T19:01:38.739Z,99342.02
2019-01-26T19:04:47.182Z,99346.36
2019-01-26T19:07:17.958Z,99340.67
2019-01-26T19:09:48.952Z,99345.41
2019-01-26T19:12:19.744Z,99338.83
2019-01-26T19:14:53.659Z,99342.31
2019-01-26T19:17:24.967Z,99332.73
2019-01-26T19:19:55.858Z,99331.43
2019-01-26T19:22:26.738Z,99329.70
2019-01-26T19:24:57.572Z,99331.41
2019-01-26T19:27:28.354Z,99327.98
2019-01-26T19:29:59.204Z,99325.34
2019-01-26T19:32:30.056Z,99325.31
2019-01-26T19:35:00.890Z,99326.98
2019-01-26T19:37:31.727Z,99322.16
2019-01-26T19:40:02.518Z,99322.60
2019-01-26T19:42:33.303Z,99316.51
2019-01-26T19:45:04.549Z,99316.06
2019-01-26T19:47:35.376Z,99315.56
2019-01-26T19:50:07.407Z,99313.38
2019-01-26T19:52:38.195Z,99308.56
2019-01-26T19:55:09.696Z,99304.19
2019-01-26T19:57:40.490Z,99299.34
2019-01-26T20:00:11.898Z,99301.50
2019-01-26T20:02:42.690Z,99305.39
2019-01-26T20:05:16.762Z,99299.22
2019-01-26T20:07:48.411Z,99298.77
2019-01-26T20:10:20.285Z,99303.54
2019-01-26T20:12:51.157Z,99296.48
2019-01-26T20:15:23.069Z,99294.28
2019-01-26T20:17:54.002Z,99293.38
2019-01-26T20:20:29.372Z,99295.66
2019-01-26T20:23:00.373Z,99291.33
2019-01-26T20:25:31.316Z,99289.61
2019-01-26T20:28:02.245Z,99288.27
2019-01-26T20:30:34.373Z,99285.23
2019-01-26T20:33:05.623Z,99280.31
2019-01-26T20:35:36.476Z,99281.59
2019-01-26T20:38:07.550Z,99285.53
2019-01-26T20:40:39.622Z,99284.14
2019-01-26T20:43:10.535Z,99278.45
2019-01-26T20:45:41.454Z,99274.05
2019-01-26T20:48:12.440Z,99276.56
2019-01-26T20:50:43.249Z,99273.49
2019-01-26T20:53:14.114Z,99270.38
2019-01-26T20:55:44.933Z,99271.67
2019-01-26T20:58:17.549Z,99268.17
2019-01-26T21:00:48.473Z,99275.97
2019-01-26T21:03:19.813Z,99271.61
2019-01-26T21:05:56.181Z,99269.80
2019-01-26T21:08:32.616Z,99270.63
2019-01-26T21:11:09.703Z,99268.42
2019-01-26T21:13:40.974Z,99267.92
2019-01-26T21:16:12.401Z,99268.38
2019-01-26T21:18:43.603Z,99265.29
2019-01-26T21:21:17.544Z,99267.85
2019-01-26T21:23:49.546Z,99270.45
2019-01-26T21:26:20.343Z,99269.14
2019-01-26T21:28:51.165Z,99266.89
2019-01-26T21:31:21.931Z,99265.88
2019-01-26T21:33:52.733Z,99266.39
2019-01-26T21:36:23.583Z,99267.27
2019-01-26T21:38:54.438Z,99268.13
2019-01-26T21:41:25.320Z,99265.45
2019-01-26T21:43:56.207Z,99267.70
2019-01-26T21:46:27.104Z,99264.57
2019-01-26T21:48:57.955Z,99261.47
2019-01-26T21:51:28.741Z,99261.51
2019-01-26T21:53:59.564Z,99262.80
2019-01-26T21:56:30.341Z,99262.42
2019-01-26T21:59:01.291Z,99257.97
2019-01-26T22:01:32.089Z,99260.56
2019-01-26T22:04:03.097Z,99254.04
2019-01-26T22:06:33.933Z,99254.06
2019-01-26T22:09:09.010Z,99254.41
2019-01-26T22:11:39.883Z,99253.09
2019-01-26T22:14:10.659Z,99249.69
2019-01-26T22:16:41.541Z,99245.34
2019-01-26T22:19:12.313Z,99241.81
2019-01-26T22:21:46.133Z,99246.63
2019-01-26T22:24:15.679Z,99236.05
2019-01-26T22:26:46.513Z,99241.85
2019-01-26T22:29:17.316Z,99245.82
2019-01-26T22:31:48.119Z,99240.84
2019-01-26T22:34:18.909Z,99234.33
2019-01-26T22:36:49.681Z,99230.49
2019-01-26T22:39:20.477Z,99235.30
2019-01-26T22:41:51.262Z,99235.27
2019-01-26T22:44:22.064Z,99227.88
2019-01-26T22:46:53.557Z,99230.38
2019-01-26T22:49:24.365Z,99229.95
2019-01-26T22:51:55.178Z,99226.97
2019-01-26T22:54:25.910Z,99223.48
2019-01-26T22:56:56.785Z,99213.43
2019-01-26T22:59:27.607Z,99210.45
2019-01-26T23:01:58.659Z,99208.23
2019-01-26T23:05:21.925Z,99206.50
2019-01-26T23:08:06.353Z,99196.44
2019-01-26T23:11:27.070Z,99194.68
2019-01-26T23:14:34.025Z,99193.72
2019-01-26T23:17:51.830Z,99190.41
2019-01-26T23:20:38.924Z,99192.28
2019-01-26T23:24:01.070Z,99185.03
2019-01-26T23:27:14.096Z,99182.26
2019-01-26T23:30:47.428Z,99171.86
2019-01-26T23:33:18.214Z,99174.06
2019-01-26T23:35:48.992Z,99168.56
2019-01-26T23:38:19.868Z,99170.62
2019-01-26T23:40:50.625Z,99165.09
2019-01-26T23:43:21.392Z,99157.63
2019-01-26T23:45:52.200Z,99152.90
2019-01-26T23:48:22.990Z,99153.48
2019-01-26T23:50:53.786Z,99150.02
2019-01-26T23:53:24.624Z,99144.30
2019-01-26T23:55:55.444Z,99143.45
2019-01-26T23:58:26.288Z,99139.53
